Time;durP1;ratioP1;P1;durP2;ratioP2;P2;SDS_P1;SDS_P2;PMS_P1;PMS_P2;Temp;Humidity;BMP_temperature;BMP_pressure;BME280_temperature;BME280_humidity;BME280_pressure;Samples;Min_cycle;Max_cycle;Signal;HPM_P1;HPM_P2
2023/07/27 00:01:21;;;;;;;2.75;2.55;;;;;;;11.53;100.00;95772.31;5053442;28;20049;-71
2023/07/27 00:03:48;;;;;;;3.80;2.78;;;;;;;11.62;100.00;95764.75;5051101;28;20045;-71
2023/07/27 00:06:14;;;;;;;3.67;2.45;;;;;;;11.69;100.00;95767.78;5047829;28;20350;-71
2023/07/27 00:08:41;;;;;;;2.92;2.55;;;;;;;11.65;100.00;95770.69;5048525;28;20049;-71
2023/07/27 00:11:08;;;;;;;4.93;2.90;;;;;;;11.71;100.00;95768.47;5051705;28;20045;-71
2023/07/27 00:13:35;;;;;;;5.97;2.42;;;;;;;11.72;100.00;95769.34;5051558;28;20534;-71
2023/07/27 00:16:02;;;;;;;3.08;2.60;;;;;;;11.61;100.00;95760.50;5049406;28;20049;-71
2023/07/27 00:18:30;;;;;;;2.67;2.20;;;;;;;11.67;100.00;95755.81;5047671;28;20049;-71
2023/07/27 00:20:56;;;;;;;2.42;2.15;;;;;;;11.70;100.00;95753.03;5049716;28;20044;-71
2023/07/27 00:23:23;;;;;;;3.05;2.45;;;;;;;11.61;100.00;95757.91;5045968;28;20056;-71
2023/07/27 00:25:49;;;;;;;2.67;2.20;;;;;;;11.61;100.00;95757.91;5046485;28;20072;-71
2023/07/27 00:28:16;;;;;;;3.08;2.50;;;;;;;11.63;100.00;95763.81;5052669;28;20053;-71
2023/07/27 00:30:42;;;;;;;4.60;2.70;;;;;;;11.65;100.00;95758.53;5050592;28;20057;-71
2023/07/27 00:33:08;;;;;;;6.10;2.88;;;;;;;11.65;100.00;95750.75;5049441;28;20475;-71
2023/07/27 00:35:36;;;;;;;5.13;2.40;;;;;;;11.56;100.00;95743.56;5045361;28;20047;-71
2023/07/27 00:38:03;;;;;;;2.95;2.20;;;;;;;11.58;100.00;95744.31;5051270;28;20056;-71
2023/07/27 00:40:29;;;;;;;3.25;2.35;;;;;;;11.38;100.00;95737.84;5052612;28;20099;-71
2023/07/27 00:42:55;;;;;;;3.85;2.22;;;;;;;11.11;100.00;95740.50;5038483;28;20060;-71
2023/07/27 00:45:22;;;;;;;2.60;2.20;;;;;;;11.08;100.00;95731.16;5045847;28;20049;-71
2023/07/27 00:47:49;;;;;;;4.38;2.03;;;;;;;11.13;100.00;95729.09;5048540;28;20045;-71
2023/07/27 00:50:15;;;;;;;3.00;2.50;;;;;;;11.18;100.00;95731.41;5049814;28;20574;-71
2023/07/27 00:52:43;;;;;;;3.45;2.42;;;;;;;11.02;100.00;95720.38;5045728;28;20087;-71
2023/07/27 00:55:10;;;;;;;2.50;2.20;;;;;;;10.89;100.00;95721.16;5040962;28;20046;-71
2023/07/27 00:57:36;;;;;;;7.00;2.72;;;;;;;10.74;100.00;95724.75;5048191;28;20041;-71
2023/07/27 01:00:03;;;;;;;2.92;2.72;;;;;;;10.69;100.00;95723.38;5048848;28;20053;-71
2023/07/27 01:02:29;;;;;;;4.05;2.65;;;;;;;10.65;100.00;95721.00;5043157;28;20053;-71
2023/07/27 01:04:56;;;;;;;4.50;3.03;;;;;;;10.66;100.00;95719.22;5049570;28;20052;-71
2023/07/27 01:07:22;;;;;;;4.60;2.45;;;;;;;10.69;100.00;95719.03;5047064;28;20049;-71
2023/07/27 01:09:50;;;;;;;4.82;2.67;;;;;;;10.72;100.00;95718.84;5046803;28;20048;-71
2023/07/27 01:12:24;;;;;;;7.13;2.47;;;;;;;10.61;100.00;95708.34;5050773;28;20052;-71
2023/07/27 01:15:01;;;;;;;4.97;3.05;;;;;;;10.53;100.00;95708.84;5044319;28;20041;-71
2023/07/27 01:17:34;;;;;;;4.57;2.30;;;;;;;10.48;100.00;95708.28;5048287;28;20056;-71
2023/07/27 01:20:08;;;;;;;8.10;3.05;;;;;;;10.36;100.00;95702.13;5046810;28;20048;-71
2023/07/27 01:23:08;;;;;;;4.68;2.72;;;;;;;10.34;100.00;95701.38;5046171;28;20047;-71
2023/07/27 01:25:56;;;;;;;4.43;2.72;;;;;;;10.29;100.00;95703.44;5040553;28;20099;-71
2023/07/27 01:28:41;;;;;;;3.78;2.85;;;;;;;10.33;100.00;95694.53;5049272;28;20495;-71
2023/07/27 01:31:13;;;;;;;6.40;3.25;;;;;;;10.38;100.00;95705.44;5039715;28;20057;-71
2023/07/27 01:33:43;;;;;;;5.05;2.50;;;;;;;10.43;100.00;95697.38;5045639;28;20041;-71
2023/07/27 01:36:12;;;;;;;2.75;2.22;;;;;;;10.66;100.00;95680.38;5043511;28;20053;-71
2023/07/27 01:38:44;;;;;;;3.65;2.83;;;;;;;10.83;100.00;95682.72;5049702;28;20060;-71
2023/07/27 01:41:12;;;;;;;6.20;2.70;;;;;;;10.80;100.00;95682.91;5044216;28;20061;-71
2023/07/27 01:43:40;;;;;;;3.67;2.72;;;;;;;10.68;100.00;95673.34;5040541;28;20049;-71
2023/07/27 01:46:10;;;;;;;2.63;2.42;;;;;;;10.56;100.00;95671.53;5050341;28;20061;-71
2023/07/27 01:48:38;;;;;;;2.90;2.47;;;;;;;10.59;100.00;95674.75;5048963;28;20091;-71
2023/07/27 01:51:06;;;;;;;3.60;2.67;;;;;;;10.68;100.00;95667.31;5039786;28;20053;-71
2023/07/27 01:53:34;;;;;;;6.90;3.10;;;;;;;10.66;100.00;95665.66;5036321;28;20057;-71
2023/07/27 01:56:03;;;;;;;6.00;2.60;;;;;;;10.56;100.00;95667.19;5045245;28;20045;-71
2023/07/27 01:58:30;;;;;;;3.25;2.35;;;;;;;10.54;100.00;95668.22;5047164;28;20487;-71
2023/07/27 02:00:57;;;;;;;4.43;2.85;;;;;;;10.50;100.00;95662.41;5049863;28;20049;-71
2023/07/27 02:03:26;;;;;;;2.80;2.50;;;;;;;10.66;100.00;95663.06;5041943;28;20049;-71
2023/07/27 02:05:53;;;;;;;3.72;2.53;;;;;;;10.72;100.00;95656.69;5044905;28;20052;-71
2023/07/27 02:08:19;;;;;;;2.67;2.22;;;;;;;10.82;100.00;95659.47;5049189;28;20045;-71
2023/07/27 02:10:52;;;;;;;3.88;2.90;;;;;;;10.82;100.00;95655.13;5043932;28;20155;-71
2023/07/27 02:13:28;;;;;;;2.90;2.70;;;;;;;10.84;100.00;95653.28;5051251;28;20048;-71
2023/07/27 02:16:03;;;;;;;3.58;2.80;;;;;;;10.83;100.00;95650.78;5043172;28;20703;-71
2023/07/27 02:18:32;;;;;;;2.90;2.30;;;;;;;10.87;100.00;95657.44;5048825;28;20102;-71
2023/07/27 02:21:00;;;;;;;5.38;2.50;;;;;;;10.95;100.00;95651.75;5047621;28;20045;-71
2023/07/27 02:23:28;;;;;;;3.85;2.78;;;;;;;10.91;100.00;95656.31;5045202;28;20059;-71
2023/07/27 02:25:54;;;;;;;2.78;2.03;;;;;;;10.98;100.00;95648.97;5039257;28;20048;-71
2023/07/27 02:28:27;;;;;;;2.78;2.35;;;;;;;10.98;100.00;95644.59;5051384;28;20045;-71
2023/07/27 02:30:54;;;;;;;3.85;2.13;;;;;;;11.05;100.00;95638.09;5043452;28;20068;-71
2023/07/27 02:33:20;;;;;;;2.00;1.80;;;;;;;11.08;100.00;95632.66;5047008;28;20049;-71
2023/07/27 02:35:48;;;;;;;4.07;2.63;;;;;;;11.02;100.00;95634.88;5046927;28;20060;-71
2023/07/27 02:38:14;;;;;;;3.97;2.60;;;;;;;10.96;100.00;95627.50;5045600;28;20045;-71
2023/07/27 02:40:42;;;;;;;3.22;2.53;;;;;;;10.96;100.00;95637.84;5045351;28;20049;-71
2023/07/27 02:43:08;;;;;;;3.67;2.58;;;;;;;11.02;100.00;95617.53;5040237;28;20442;-71
2023/07/27 02:45:35;;;;;;;3.10;2.10;;;;;;;11.11;100.00;95613.50;5047528;28;20075;-71
2023/07/27 02:48:01;;;;;;;4.85;2.83;;;;;;;11.13;100.00;95619.41;5040385;28;20052;-71
2023/07/27 02:50:28;;;;;;;2.28;2.08;;;;;;;11.25;100.00;95616.00;5048381;28;20060;-71
2023/07/27 02:52:55;;;;;;;3.88;2.58;;;;;;;11.35;100.00;95616.22;5047571;28;20088;-71
2023/07/27 02:55:22;;;;;;;3.75;2.58;;;;;;;11.22;100.00;95616.19;5045640;28;20057;-71
2023/07/27 02:57:48;;;;;;;6.97;2.45;;;;;;;11.24;100.00;95627.31;5050662;28;20396;-71
2023/07/27 03:00:15;;;;;;;2.35;2.15;;;;;;;11.24;100.00;95618.69;5049884;28;20053;-71
2023/07/27 03:02:41;;;;;;;3.53;2.20;;;;;;;11.09;100.00;95620.56;5046290;28;20410;-71
2023/07/27 03:05:08;;;;;;;5.60;2.15;;;;;;;10.90;100.00;95621.78;5044743;28;20511;-71
2023/07/27 03:07:35;;;;;;;2.38;2.17;;;;;;;10.94;100.00;95627.59;5045546;28;20052;-71
2023/07/27 03:10:03;;;;;;;2.42;2.22;;;;;;;10.91;100.00;95625.22;5043650;28;20053;-71
2023/07/27 03:12:30;;;;;;;3.08;2.45;;;;;;;10.85;100.00;95621.25;5048181;28;20048;-71
2023/07/27 03:14:56;;;;;;;3.95;2.83;;;;;;;10.96;100.00;95617.13;5050509;28;20568;-71
2023/07/27 03:17:23;;;;;;;2.05;1.75;;;;;;;11.08;100.00;95618.88;5048328;28;20465;-71
2023/07/27 03:19:49;;;;;;;4.68;2.05;;;;;;;11.13;100.00;95617.66;5047169;28;20095;-71
2023/07/27 03:22:15;;;;;;;2.85;2.28;;;;;;;11.24;100.00;95624.72;5054407;28;20049;-71
2023/07/27 03:24:42;;;;;;;5.97;2.85;;;;;;;11.17;100.00;95622.63;5048247;28;20259;-71
2023/07/27 03:27:10;;;;;;;3.22;1.90;;;;;;;11.11;100.00;95613.50;5047030;28;20415;-71
2023/07/27 03:29:36;;;;;;;3.08;2.03;;;;;;;10.99;100.00;95606.56;5049944;28;20436;-71
2023/07/27 03:32:03;;;;;;;3.05;2.47;;;;;;;11.01;100.00;95600.34;5040988;28;20061;-71
2023/07/27 03:34:29;;;;;;;3.92;2.53;;;;;;;11.13;100.00;95598.69;5050008;28;20083;-72
2023/07/27 03:36:56;;;;;;;3.15;2.10;;;;;;;11.28;100.00;95597.63;5044281;28;20049;-71
2023/07/27 03:39:22;;;;;;;3.50;1.88;;;;;;;11.35;100.00;95585.09;5044833;28;20049;-72
2023/07/27 03:41:48;;;;;;;7.15;2.40;;;;;;;11.39;100.00;95583.94;5048960;28;20354;-71
2023/07/27 03:44:16;;;;;;;2.20;2.00;;;;;;;11.38;100.00;95582.25;5050958;28;20122;-71
2023/07/27 03:46:42;;;;;;;3.05;2.28;;;;;;;11.45;100.00;95577.50;5051331;28;20651;-71
2023/07/27 03:49:09;;;;;;;2.22;1.80;;;;;;;11.51;100.00;95582.25;5058460;28;20048;-71
2023/07/27 03:51:36;;;;;;;4.10;2.20;;;;;;;11.51;100.00;95579.66;5059824;28;20049;-71
2023/07/27 03:54:02;;;;;;;5.57;2.08;;;;;;;11.53;100.00;95570.84;5041938;28;20057;-72
2023/07/27 03:56:29;;;;;;;2.35;1.83;;;;;;;11.62;100.00;95577.97;5046189;28;20134;-71
2023/07/27 03:58:55;;;;;;;3.45;2.03;;;;;;;11.47;100.00;95576.47;5042513;28;20484;-71
2023/07/27 04:01:23;;;;;;;2.10;1.88;;;;;;;11.45;100.00;95575.72;5047450;28;20130;-71
2023/07/27 04:03:49;;;;;;;2.90;2.00;;;;;;;11.53;100.00;95570.00;5042905;28;20057;-71
2023/07/27 04:06:16;;;;;;;4.03;2.13;;;;;;;11.54;100.00;95574.28;5047326;28;20502;-71
2023/07/27 04:08:42;;;;;;;2.78;2.20;;;;;;;11.37;100.00;95573.66;5041545;28;20056;-71
2023/07/27 04:11:09;;;;;;;4.55;1.95;;;;;;;11.36;100.00;95578.97;5047444;28;20054;-71
2023/07/27 04:13:37;;;;;;;3.75;2.55;;;;;;;11.27;100.00;95574.41;5038640;28;20058;-71
2023/07/27 04:16:04;;;;;;;4.28;2.10;;;;;;;11.18;100.00;95568.09;5043141;28;20136;-70
2023/07/27 04:18:32;;;;;;;2.38;2.15;;;;;;;11.30;100.00;95561.22;5040549;28;20045;-70
2023/07/27 04:20:58;;;;;;;2.63;1.90;;;;;;;11.24;100.00;95565.09;5049872;28;20075;-71
2023/07/27 04:23:25;;;;;;;2.63;1.70;;;;;;;11.39;100.00;95556.25;5053222;28;20053;-71
2023/07/27 04:25:51;;;;;;;2.97;2.20;;;;;;;11.35;100.00;95557.41;5051467;28;20536;-71
2023/07/27 04:28:18;;;;;;;4.07;2.40;;;;;;;11.37;100.00;95562.47;5053237;28;20045;-70
2023/07/27 04:30:45;;;;;;;2.88;2.00;;;;;;;11.41;100.00;95561.31;5052349;28;20488;-70
2023/07/27 04:33:11;;;;;;;2.78;2.22;;;;;;;11.42;100.00;95562.13;5044772;28;20081;-70
2023/07/27 04:35:39;;;;;;;3.90;1.98;;;;;;;11.56;100.00;95555.06;5049173;28;20060;-70
2023/07/27 04:38:05;;;;;;;2.13;1.80;;;;;;;11.58;100.00;95557.56;5052612;28;20440;-71
2023/07/27 04:40:32;;;;;;;6.38;2.35;;;;;;;11.59;100.00;95554.84;5050071;28;20499;-70
2023/07/27 04:42:58;;;;;;;3.40;2.20;;;;;;;11.58;100.00;95562.75;5052200;28;20048;-71
2023/07/27 04:45:24;;;;;;;3.17;2.33;;;;;;;11.67;100.00;95563.84;5050405;28;20056;-70
2023/07/27 04:47:51;;;;;;;4.20;1.88;;;;;;;11.74;100.00;95571.09;5045467;28;20049;-70
2023/07/27 04:50:17;;;;;;;3.35;1.92;;;;;;;11.66;100.00;95575.19;5049355;28;20564;-70
2023/07/27 04:52:45;;;;;;;2.85;1.80;;;;;;;11.60;100.00;95573.81;5049573;28;20458;-71
2023/07/27 04:55:11;;;;;;;2.88;2.25;;;;;;;11.61;100.00;95573.72;5043933;28;20057;-70
2023/07/27 04:57:38;;;;;;;3.33;2.38;;;;;;;11.52;100.00;95581.31;5043238;28;20053;-70
2023/07/27 05:00:06;;;;;;;3.70;2.17;;;;;;;11.62;100.00;95580.56;5052374;28;20053;-70
2023/07/27 05:02:32;;;;;;;3.33;2.10;;;;;;;11.63;100.00;95576.22;5051969;28;20049;-71
2023/07/27 05:04:58;;;;;;;3.25;2.08;;;;;;;11.57;100.00;95587.03;5050783;28;20072;-70
2023/07/27 05:07:25;;;;;;;5.68;2.55;;;;;;;11.65;100.00;95573.53;5051574;28;20541;-70
2023/07/27 05:09:53;;;;;;;5.47;2.22;;;;;;;11.71;100.00;95573.91;5046916;28;20163;-71
2023/07/27 05:12:20;;;;;;;2.85;1.85;;;;;;;11.81;100.00;95572.31;5046029;28;20079;-70
2023/07/27 05:14:46;;;;;;;2.88;2.00;;;;;;;11.86;100.00;95570.28;5050604;28;20434;-70
2023/07/27 05:17:13;;;;;;;2.35;1.90;;;;;;;11.93;100.00;95570.66;5047451;28;20082;-70
2023/07/27 05:19:39;;;;;;;6.32;1.65;;;;;;;11.92;100.00;95571.59;5051257;28;20052;-70
2023/07/27 05:22:06;;;;;;;7.10;2.03;;;;;;;11.93;100.00;95568.06;5049242;28;20114;-70
2023/07/27 05:24:32;;;;;;;3.25;1.88;;;;;;;12.02;100.00;95562.22;5052164;28;20487;-71
2023/07/27 05:27:00;;;;;;;3.60;2.00;;;;;;;12.13;100.00;95561.44;5048641;28;20041;-71
2023/07/27 05:29:26;;;;;;;1.92;1.80;;;;;;;12.08;100.00;95556.56;5050749;28;20052;-70
2023/07/27 05:31:53;;;;;;;5.45;2.00;;;;;;;12.17;100.00;95559.47;5050634;28;20056;-71
2023/07/27 05:34:19;;;;;;;2.65;2.03;;;;;;;12.22;100.00;95546.97;5049564;28;20538;-70
2023/07/27 05:36:46;;;;;;;3.30;1.80;;;;;;;12.30;100.00;95550.66;5051245;28;20048;-71
2023/07/27 05:39:12;;;;;;;2.70;1.98;;;;;;;12.37;100.00;95555.41;5048548;28;20049;-71
2023/07/27 05:41:39;;;;;;;3.95;2.03;;;;;;;12.37;100.00;95545.84;5044860;28;20053;-71
2023/07/27 05:44:06;;;;;;;4.25;2.13;;;;;;;12.37;100.00;95545.84;5047519;28;20503;-71
2023/07/27 05:46:33;;;;;;;5.28;1.98;;;;;;;12.47;100.00;95540.81;5050021;28;20419;-72
2023/07/27 05:48:59;;;;;;;2.50;1.73;;;;;;;12.49;100.00;95554.50;5043238;28;20037;-72
2023/07/27 05:51:26;;;;;;;2.92;1.70;;;;;;;12.50;100.00;95550.97;5044450;28;20072;-72
2023/07/27 05:53:52;;;;;;;4.25;2.13;;;;;;;12.40;100.00;95556.00;5048684;28;20187;-71
2023/07/27 05:56:19;;;;;;;1.52;1.35;;;;;;;12.37;100.00;95560.59;5036334;28;20049;-72
2023/07/27 05:58:45;;;;;;;3.40;2.40;;;;;;;12.43;100.00;95555.78;5048515;28;20045;-71
2023/07/27 06:01:14;;;;;;;3.20;2.13;;;;;;;12.46;100.00;95562.50;5046308;28;20059;-72
2023/07/27 06:03:40;;;;;;;2.03;1.65;;;;;;;12.59;100.00;95558.06;5052342;28;20507;-72
2023/07/27 06:06:07;;;;;;;3.60;2.67;;;;;;;12.65;100.00;95554.22;5050403;28;20052;-71
2023/07/27 06:08:34;;;;;;;3.55;2.22;;;;;;;12.66;100.00;95554.09;5050406;28;20045;-72
2023/07/27 06:11:03;;;;;;;2.75;1.90;;;;;;;12.76;100.00;95557.66;5047947;28;20072;-71
2023/07/27 06:13:30;;;;;;;3.67;2.15;;;;;;;12.82;100.00;95556.34;5051655;28;20457;-71
2023/07/27 06:15:56;;;;;;;5.40;2.15;;;;;;;12.84;100.00;95550.09;5047476;28;20057;-71
2023/07/27 06:18:24;;;;;;;2.97;2.03;;;;;;;12.90;100.00;95550.56;5051568;28;20450;-71
2023/07/27 06:20:51;;;;;;;3.75;2.55;;;;;;;12.91;100.00;95547.88;5045091;28;20495;-72
2023/07/27 06:23:17;;;;;;;4.38;2.75;;;;;;;12.93;100.00;95545.16;5051124;28;20056;-71
2023/07/27 06:25:44;;;;;;;3.55;2.05;;;;;;;12.99;100.00;95550.72;5047280;28;20049;-70
2023/07/27 06:28:10;;;;;;;2.78;2.10;;;;;;;13.00;100.00;95547.16;5050861;28;20537;-71
2023/07/27 06:30:38;;;;;;;2.70;2.38;;;;;;;13.05;100.00;95554.63;5047745;28;20107;-71
2023/07/27 06:33:06;;;;;;;2.13;1.92;;;;;;;13.13;100.00;95551.47;5046635;28;20098;-71
2023/07/27 06:35:34;;;;;;;7.57;2.75;;;;;;;13.10;100.00;95552.50;5050935;28;20045;-71
2023/07/27 06:38:01;;;;;;;2.40;2.13;;;;;;;13.16;100.00;95554.63;5050684;28;20491;-71
2023/07/27 06:40:27;;;;;;;2.45;1.98;;;;;;;13.27;100.00;95541.69;5048294;28;20053;-71
2023/07/27 06:42:55;;;;;;;3.08;2.03;;;;;;;13.39;100.00;95547.72;5050303;28;20048;-71
2023/07/27 06:45:21;;;;;;;2.67;1.90;;;;;;;13.42;100.00;95537.06;5050693;28;20051;-71
2023/07/27 06:47:48;;;;;;;3.25;2.08;;;;;;;13.48;100.00;95538.34;5047993;28;20642;-71
2023/07/27 06:50:14;;;;;;;3.92;2.60;;;;;;;13.56;100.00;95530.75;5050253;28;20048;-71
2023/07/27 06:52:42;;;;;;;7.90;2.20;;;;;;;13.58;100.00;95533.28;5046883;28;20040;-71
2023/07/27 06:55:10;;;;;;;2.42;1.98;;;;;;;13.65;100.00;95539.66;5046350;28;20049;-71
2023/07/27 06:57:36;;;;;;;3.42;2.10;;;;;;;13.68;100.00;95537.63;5047449;28;20098;-71
2023/07/27 07:00:03;;;;;;;4.10;2.08;;;;;;;13.77;100.00;95528.25;5046759;28;20553;-71
2023/07/27 07:02:30;;;;;;;2.28;2.05;;;;;;;13.77;100.00;95526.47;5046708;28;20048;-71
2023/07/27 07:04:57;;;;;;;2.65;1.80;;;;;;;13.77;100.00;95526.47;5047590;28;20085;-71
2023/07/27 07:07:23;;;;;;;2.30;2.00;;;;;;;13.90;100.00;95523.72;5046430;28;20051;-71
2023/07/27 07:09:52;;;;;;;3.55;2.08;;;;;;;13.86;100.00;95519.69;5048701;28;20094;-71
2023/07/27 07:12:19;;;;;;;4.35;2.00;;;;;;;13.86;100.00;95511.91;5046127;28;20465;-71
2023/07/27 07:14:45;;;;;;;4.65;2.03;;;;;;;13.79;100.00;95511.59;5049149;28;20044;-71
2023/07/27 07:17:11;;;;;;;2.92;1.83;;;;;;;13.87;100.00;95512.72;5045132;28;20049;-71
2023/07/27 07:19:38;;;;;;;1.92;1.70;;;;;;;13.90;100.00;95512.47;5051664;28;20132;-71
2023/07/27 07:22:05;;;;;;;5.80;1.95;;;;;;;13.93;100.00;95520.03;5048087;28;20132;-71
2023/07/27 07:24:31;;;;;;;5.65;2.10;;;;;;;13.90;100.00;95517.69;5054374;28;20086;-71
2023/07/27 07:26:59;;;;;;;3.95;2.17;;;;;;;13.95;100.00;95512.94;5047610;28;20056;-71
2023/07/27 07:29:26;;;;;;;2.33;2.13;;;;;;;14.09;100.00;95510.06;5054283;28;20049;-71
2023/07/27 07:31:53;;;;;;;9.52;1.77;;;;;;;13.99;100.00;95509.97;5045975;28;20044;-71
2023/07/27 07:34:19;;;;;;;3.50;2.08;;;;;;;13.93;100.00;95514.84;5054246;28;20439;-71
2023/07/27 07:36:46;;;;;;;3.70;2.05;;;;;;;14.07;100.00;95518.94;5047592;28;20415;-71
2023/07/27 07:39:12;;;;;;;3.72;1.80;;;;;;;14.04;100.00;95512.19;5053452;28;20049;-71
2023/07/27 07:41:39;;;;;;;2.80;2.35;;;;;;;14.14;100.00;95512.28;5052946;28;20053;-71
2023/07/27 07:44:06;;;;;;;4.43;1.85;;;;;;;14.23;100.00;95504.53;5052560;28;20044;-71
2023/07/27 07:46:33;;;;;;;5.40;2.30;;;;;;;14.28;100.00;95501.59;5052285;28;20132;-71
2023/07/27 07:49:00;;;;;;;7.65;1.88;;;;;;;14.33;100.00;95498.59;5052241;28;20056;-71
2023/07/27 07:51:26;;;;;;;2.42;1.80;;;;;;;14.40;100.00;95494.53;5053800;28;20138;-71
2023/07/27 07:53:53;;;;;;;5.95;2.22;;;;;;;14.44;100.00;95482.91;5050205;28;20053;-70
2023/07/27 07:56:20;;;;;;;4.90;1.98;;;;;;;14.40;100.00;95477.13;5048202;28;20102;-71
2023/07/27 07:58:46;;;;;;;5.90;2.30;;;;;;;14.49;100.00;95478.13;5050746;28;20098;-70
2023/07/27 08:01:14;;;;;;;5.05;2.05;;;;;;;14.56;100.00;95465.47;5047837;28;20487;-71
2023/07/27 08:03:40;;;;;;;4.50;1.67;;;;;;;14.52;100.00;95467.50;5045097;28;20049;-71
2023/07/27 08:06:08;;;;;;;3.58;2.33;;;;;;;14.48;100.00;95469.50;5053007;28;20049;-71
2023/07/27 08:08:35;;;;;;;3.30;1.80;;;;;;;14.55;100.00;95472.44;5053370;28;20053;-70
2023/07/27 08:11:02;;;;;;;3.33;2.20;;;;;;;14.59;100.00;95463.41;5044566;28;20124;-70
2023/07/27 08:13:29;;;;;;;3.72;2.00;;;;;;;14.67;100.00;95463.59;5051093;28;20482;-70
2023/07/27 08:15:55;;;;;;;2.92;2.20;;;;;;;14.77;100.00;95468.88;5048364;28;20049;-70
2023/07/27 08:18:23;;;;;;;4.07;1.95;;;;;;;14.82;100.00;95476.31;5051657;28;20057;-70
2023/07/27 08:21:00;;;;;;;3.65;1.80;;;;;;;14.90;100.00;95473.88;5046678;28;20041;-71
2023/07/27 08:23:28;;;;;;;4.18;1.88;;;;;;;15.05;100.00;95475.16;5048550;28;20061;-70
2023/07/27 08:25:55;;;;;;;4.05;2.22;;;;;;;15.01;100.00;95472.00;5048973;28;20048;-70
2023/07/27 08:28:22;;;;;;;6.45;1.90;;;;;;;15.08;100.00;95466.25;5052000;28;20052;-70
2023/07/27 08:30:48;;;;;;;2.30;1.88;;;;;;;15.17;100.00;95447.22;5051182;28;20052;-71
2023/07/27 08:33:15;;;;;;;8.98;1.95;;;;;;;15.27;100.00;95442.84;5052738;28;20495;-70
2023/07/27 08:35:43;;;;;;;5.13;2.28;;;;;;;15.18;100.00;95436.66;5049274;28;20044;-70
2023/07/27 08:38:10;;;;;;;5.03;2.03;;;;;;;15.20;100.00;95437.38;5052041;28;20057;-70
2023/07/27 08:40:36;;;;;;;4.38;1.95;;;;;;;15.24;100.00;95436.13;5052209;28;20048;-70
2023/07/27 08:43:04;;;;;;;2.10;1.80;;;;;;;15.26;100.00;95430.78;5046845;28;20049;-70
2023/07/27 08:45:31;;;;;;;15.20;2.05;;;;;;;15.27;100.00;95428.97;5049821;28;20145;-70
2023/07/27 08:47:59;;;;;;;4.47;2.00;;;;;;;15.36;100.00;95420.38;5052468;28;20068;-70
2023/07/27 08:50:26;;;;;;;4.05;2.03;;;;;;;15.36;100.00;95415.97;5052621;28;20076;-70
2023/07/27 08:52:54;;;;;;;1.67;1.52;;;;;;;15.39;100.00;95409.66;5048924;28;20053;-70
2023/07/27 08:55:21;;;;;;;2.97;1.70;;;;;;;15.47;100.00;95409.81;5052515;28;20055;-70
2023/07/27 08:57:47;;;;;;;3.60;1.88;;;;;;;15.56;100.00;95416.81;5050204;28;20055;-70
2023/07/27 09:00:15;;;;;;;5.70;1.98;;;;;;;15.53;100.00;95406.66;5052340;28;20048;-71
2023/07/27 09:02:42;;;;;;;;;;;;;;;15.63;100.00;95409.28;5050654;28;20061;-70
2023/07/27 09:05:10;;;;;;;2.25;1.85;;;;;;;15.64;100.00;95410.91;5050988;28;19924;-71
2023/07/27 09:07:36;;;;;;;5.05;2.15;;;;;;;15.66;100.00;95409.03;5052040;28;20140;-70
2023/07/27 09:10:07;;;;;;;1.85;1.50;;;;;;;15.65;100.00;95417.81;5047414;28;20052;-70
2023/07/27 09:12:33;;;;;;;2.08;1.88;;;;;;;15.70;100.00;95423.47;5052464;28;20084;-71
2023/07/27 09:15:00;;;;;;;3.20;1.90;;;;;;;15.84;100.00;95425.69;5048869;28;20576;-71
2023/07/27 09:17:27;;;;;;;3.45;2.08;;;;;;;15.76;100.00;95428.16;5043013;28;20045;-70
2023/07/27 09:19:53;;;;;;;3.25;1.90;;;;;;;15.82;100.00;95437.22;5048312;28;20037;-70
2023/07/27 09:22:20;;;;;;;4.97;1.80;;;;;;;15.78;100.00;95441.88;5049648;28;20084;-70
2023/07/27 09:24:46;;;;;;;3.28;1.83;;;;;;;15.81;100.00;95444.22;5052045;28;20044;-70
2023/07/27 09:27:15;;;;;;;4.25;2.03;;;;;;;15.83;100.00;95438.84;5045211;28;20049;-71
2023/07/27 09:29:42;;;;;;;5.68;1.90;;;;;;;15.85;100.00;95434.34;5050587;28;20140;-71
2023/07/27 09:32:10;;;;;;;3.30;1.77;;;;;;;15.78;100.00;95433.22;5052111;28;20053;-71
2023/07/27 09:34:37;;;;;;;4.40;1.90;;;;;;;15.81;100.00;95431.19;5049759;28;20052;-71
2023/07/27 09:37:06;;;;;;;2.13;1.85;;;;;;;15.82;100.00;95443.25;5046116;28;20048;-71
2023/07/27 09:39:33;;;;;;;4.28;2.20;;;;;;;15.83;100.00;95439.69;5048392;28;20052;-70
2023/07/27 09:42:00;;;;;;;2.85;1.65;;;;;;;15.81;100.00;95440.81;5050975;28;20045;-71
2023/07/27 09:44:27;;;;;;;2.38;1.83;;;;;;;15.85;100.00;95429.13;5047724;28;20127;-71
2023/07/27 09:46:54;;;;;;;;;;;;;;;15.87;100.00;95427.19;5051456;28;20053;-71
2023/07/27 09:49:20;;;;;;;;;;;;;;;15.87;100.00;95422.81;5051704;28;19920;-71
2023/07/27 09:51:47;;;;;;;;;;;;;;;15.87;100.00;95421.94;5050649;28;20366;-71
2023/07/27 09:54:13;;;;;;;;;;;;;;;15.91;100.00;95424.19;5051308;28;19966;-71
2023/07/27 09:56:40;;;;;;;;;;;;;;;15.96;100.00;95428.97;5047680;28;19943;-71
2023/07/27 09:59:07;;;;;;;;;;;;;;;16.02;100.00;95424.97;5046397;28;19925;-71
2023/07/27 10:01:35;;;;;;;;;;;;;;;16.04;100.00;95416.06;5044412;28;19928;-71
2023/07/27 10:04:01;;;;;;;;;;;;;;;16.14;100.00;95416.06;5050792;22;20397;-71
2023/07/27 10:06:28;;;;;;;;;;;;;;;16.23;100.00;95417.81;5041571;28;19948;-71
2023/07/27 10:08:55;;;;;;;2.85;1.63;;;;;;;16.27;100.00;95413.13;5034302;28;19922;-71
2023/07/27 10:11:29;;;;;;;3.28;1.60;;;;;;;16.40;100.00;95416.28;5035596;28;20048;-71
2023/07/27 10:13:56;;;;;;;;;;;;;;;16.50;100.00;95418.88;5029822;28;20471;-71
2023/07/27 10:16:27;;;;;;;5.20;1.80;;;;;;;16.60;100.00;95415.28;5030452;28;19921;-71
2023/07/27 10:18:55;;;;;;;4.07;2.00;;;;;;;16.72;100.00;95407.25;5031036;28;20094;-71
2023/07/27 10:21:23;;;;;;;;;;;;;;;16.80;100.00;95404.81;5031034;28;20045;-71
2023/07/27 10:23:53;;;;;;;;;;;;;;;16.96;100.00;95406.81;5032350;28;19925;-71
2023/07/27 10:26:20;;;;;;;;;;;;;;;17.14;100.00;95399.84;5040692;28;19921;-71
2023/07/27 10:28:48;;;;;;;;;;;;;;;17.26;100.00;95400.47;5039099;28;19971;-72
2023/07/27 10:31:14;;;;;;;;;;;;;;;17.39;100.00;95401.75;5042879;28;19932;-71
2023/07/27 10:33:46;;;;;;;3.53;1.55;;;;;;;17.53;100.00;95397.78;5036673;28;19928;-71
2023/07/27 10:36:13;;;;;;;5.43;2.10;;;;;;;17.57;100.00;95393.91;5041590;28;20132;-71
2023/07/27 10:38:40;;;;;;;6.40;1.83;;;;;;;17.66;100.00;95386.97;5036910;28;20053;-71
2023/07/27 10:41:16;;;;;;;3.97;1.63;;;;;;;17.80;100.00;95388.28;5029549;28;20053;-71
2023/07/27 10:44:03;;;;;;;;;;;;;;;17.89;100.00;95380.34;5031392;28;20038;-71
2023/07/27 10:46:30;;;;;;;;;;;;;;;17.95;100.00;95383.31;5023021;28;20291;-71
2023/07/27 10:49:07;;;;;;;;;;;;;;;18.06;100.00;95368.22;5038595;28;19928;-71
2023/07/27 10:51:35;;;;;;;;;;;;;;;18.06;100.00;95373.44;5044986;28;19921;-71
2023/07/27 10:54:01;;;;;;;;;;;;;;;18.15;100.00;95374.31;5038718;28;20441;-71
2023/07/27 10:56:28;;;;;;;;;;;;;;;18.18;100.00;95363.53;5043038;28;19928;-71
2023/07/27 10:58:58;;;;;;;;;;;;;;;18.25;100.00;95369.00;5046467;28;19921;-71
2023/07/27 11:01:25;;;;;;;;;;;;;;;18.24;100.00;95362.91;5048197;28;19924;-71
2023/07/27 11:03:51;;;;;;;;;;;;;;;18.25;100.00;95369.00;5046087;28;20116;-71
2023/07/27 11:06:18;;;;;;;;;;;;;;;18.31;100.00;95369.19;5038017;28;19929;-71
2023/07/27 11:08:46;;;;;;;;;;;;;;;18.27;100.00;95361.78;5047525;28;20016;-71
2023/07/27 11:11:16;;;;;;;;;;;;;;;18.26;100.00;95360.16;5031543;28;19921;-72
2023/07/27 11:13:42;;;;;;;;;;;;;;;18.30;100.00;95358.88;5038405;28;20301;-71
2023/07/27 11:16:08;;;;;;;;;;;;;;;18.37;100.00;95357.28;5040059;28;19921;-71
2023/07/27 11:18:35;;;;;;;;;;;;;;;18.45;100.00;95344.22;5036566;28;19921;-72
2023/07/27 11:21:02;;;;;;;;;;;;;;;18.49;100.00;95336.84;5038180;28;20020;-72
2023/07/27 11:23:29;;;;;;;;;;;;;;;18.46;100.00;95337.16;5035162;28;19971;-72
2023/07/27 11:25:57;;;;;;;;;;;;;;;18.53;100.00;95338.19;5044548;28;19920;-71
2023/07/27 11:28:24;;;;;;;;;;;;;;;18.46;100.00;95335.34;5040512;28;19954;-71
2023/07/27 11:30:51;;;;;;;;;;;;;;;18.47;100.00;95326.53;5042937;28;19925;-71
2023/07/27 11:33:17;;;;;;;;;;;;;;;18.44;100.00;95324.22;5041098;28;20398;-71
2023/07/27 11:35:47;;;;;;;;;;;;;;;18.52;100.00;95326.88;5043963;28;19920;-71